Cleveland, WI (53015)

2:44 PM CDT on September 01, 2014 (GMT -0500)
Village of Cleveland | Change Station
CLOSE
Current Station
Personal Weather Station
Location: Cleveland, WI
Elevation: 653 ft
Nearby Weather Stations
Active Advisory: Beach Hazard Statement

Elev 653 ft 43.91 °N, 87.75 °W | Updated 4 minutes ago

Overcast
Overcast
75.5 °F
Feels Like 77 °F
N
5.0
Wind Variable Wind from SW
Gusts 13.0 mph

Today
High -- | Low -- °F
--% Chance of Precip.
Yesterday
High -- | Low -- °F
Precip. -- in
6:14 AM 7:26 PM
Waxing Crescent, 43% visible
Pressure 29.68 in
Visibility 10.0 miles
Clouds Scattered Clouds 3000 ft
Mostly Cloudy 3600 ft
Overcast 4400 ft
Heat Index 77 °F
Dew Point 67 °F
Humidity 76%
Rainfall 0.36 in
Snow Depth Not available.
UV 10.8 out of 12
Pollen 3.90 out of 12
Air Quality Not available.
Flu Activity Not available.
METAR KSBM 011853Z AUTO 25008KT 10SM SCT030 BKN036 OVC044 24/18 A2969 RMK AO2 SLP049 T02440183

More Conditions Fewer Conditions

Pressure 29.68 in
Visibility 10.0 miles
Clouds Scattered Clouds 3000 ft
Mostly Cloudy 3600 ft
Overcast 4400 ft
Heat Index 77 °F
Dew Point 67 °F
Humidity 76%
Rainfall 0.36 in
Snow Depth Not available.
UV 10.8 out of 12
Pollen 3.90 out of 12
Air Quality Not available.
Flu Activity Not available.
METAR KSBM 011853Z AUTO 25008KT 10SM SCT030 BKN036 OVC044 24/18 A2969 RMK AO2 SLP049 T02440183

More Conditions Fewer Conditions

Nowcast | as of 1:55 PM CDT on September 1, 2014

scattered showers expected through the afternoon... Scattered showers will continue to affect the area for the middle to late afternoon hours. A few of the showers will likely intensity into thunderstorms...which could produce brief heavy rains. But overall...the rain will not be nearly as persistent as it was during the morning. Mostly cloudy skies and humid conditions will also continue through the afternoon. By late afternoon...temperatures should range from around 70 degrees in north-central Wisconsin...to the lower to middle 70s in east- central Wisconsin.

×

10-Day Weather Forecast

Almanac

Astronomy

Sep. 01, 2014 Rise Set
Actual Time 6:14 AM CDT 7:26 PM CDT
Civil Twilight 5:44 AM CDT 7:56 PM CDT
Nautical Twilight 5:09 AM CDT 8:31 PM CDT
Astronomical Twilight 4:31 AM CDT 9:09 PM CDT
Moon 1:13 PM CDT 11:13 PM CDT
Length of Visible Light 14h 11m
Length of Day
13h 12m
Tomorrow will be 2m 55s shorter.
Waxing Crescent, 43% of the Moon is Illuminated
Today
Waxing Crescent
Sep 2
First Quarter
Sep 8
Full
Sep 15
Last Quarter
Sep 24
New

Today's Extremes

State Highs State Lows

Community

WunderPhotos

Upload Photos

1,749,387 photos uploaded!

WunderBlogs® & News

Nearby

Snow Depth

Station Depth Elevation
No new snow has been reported.

Earthquake Activity

City Distance Mag. Time & Date
No recent earthquake activity has been reported nearby.
Minimum magnitude displayed is 2.5.

Coastal Water Temperatures

Place Temperature
Menominee, MI 71.1 °F

Nearby Weather Stations